WetterOnline ( https://www.wetteronline.de )

Wetter aktuell Schönefeld

Aktuelles Wetter: Berlin-Tempelhof (49m)

6-stündlich | Neueste Meldungen
Ortszeit Temperatur Wetter
Mi, 24.04. 2:00 5.0° C bedeckt
Di, 23.04. 20:00 7.6° C bedeckt
Di, 23.04. 14:00 7.9° C wolkig
Di, 23.04. 8:00 1.9° C bewölkt
Di, 23.04. 2:00 2.1° C bedeckt
Mo, 22.04. 20:00 4.0° C bewölkt
Mo, 22.04. 14:00 4.9° C bedeckt
Mo, 22.04. 8:00 2.3° C wolkenlos
Ortszeit Temperatur Wetter
Mi, 24.04. 2:00 5.0° C bedeckt
Mi, 24.04. 1:50 5.0° C bedeckt
Mi, 24.04. 1:40 4.9° C bedeckt
Mi, 24.04. 1:30 5.2° C bedeckt
Mi, 24.04. 1:20 5.2° C bedeckt
Mi, 24.04. 1:10 5.4° C bedeckt
Mi, 24.04. 1:00 5.5° C bedeckt
Mi, 24.04. 0:30 5.7° C bedeckt
Mi, 24.04. 0:00 6.0° C bedeckt
Di, 23.04. 23:30 6.6° C bedeckt
Di, 23.04. 23:00 6.9° C bedeckt
Ortszeit Relative Feuchte Sichtweite
Mi, 24.04. 2:00 67% 55 km
Di, 23.04. 20:00 46% >70 km
Di, 23.04. 14:00 43% >70 km
Di, 23.04. 8:00 89% 29 km
Di, 23.04. 2:00 90% 40 km
Mo, 22.04. 20:00 76% >70 km
Mo, 22.04. 14:00 72% 65 km
Mo, 22.04. 8:00 67% 45 km
Ortszeit Relative Feuchte Sichtweite
Mi, 24.04. 2:00 67% 55 km
Mi, 24.04. 1:50 67% -
Mi, 24.04. 1:40 68% -
Mi, 24.04. 1:30 67% 50 km
Mi, 24.04. 1:20 67% -
Mi, 24.04. 1:10 65% -
Mi, 24.04. 1:00 66% 55 km
Mi, 24.04. 0:30 64% 50 km
Mi, 24.04. 0:00 62% 55 km
Di, 23.04. 23:30 57% 60 km
Di, 23.04. 23:00 55% 50 km
Ortszeit Niederschlagsmenge Niederschlagsart
Mi, 24.04. 2:00 0.0 l/m2 in 6 Std. -
Di, 23.04. 20:00 0.0 l/m2 in 3 Std. -
Di, 23.04. 14:00 0.0 l/m2 in 6 Std. -
Di, 23.04. 8:00 0.0 l/m2 in 12 Std. -
Di, 23.04. 2:00 0.0 l/m2 in 6 Std. -
Mo, 22.04. 20:00 0.3 l/m2 in 12 Std. Regen
Mo, 22.04. 14:00 0.1 l/m2 in 6 Std. Regen
Mo, 22.04. 8:00 0.0 l/m2 in 12 Std. -
Ortszeit Niederschlagsmenge Niederschlagsart
Mi, 24.04. 2:00 0.0 l/m2 in 1 Std. -
Mi, 24.04. 1:50 keine Meldung -
Mi, 24.04. 1:40 keine Meldung -
Mi, 24.04. 1:30 0.0 l/m2 in 30 Min -
Mi, 24.04. 1:20 keine Meldung -
Mi, 24.04. 1:10 keine Meldung -
Mi, 24.04. 1:00 0.0 l/m2 in 1 Std. -
Mi, 24.04. 0:30 0.0 l/m2 in 30 Min -
Mi, 24.04. 0:00 0.0 l/m2 in 1 Std. -
Di, 23.04. 23:30 0.0 l/m2 in 30 Min -
Di, 23.04. 23:00 0.0 l/m2 in 1 Std. -
Ortszeit Stärke Spitze Richtung
km/h Bft. km/h Grad Sektor
Mi, 24.04. 2:00 7 2 13 170° S
Di, 23.04. 20:00 4 1 29 270° W
Di, 23.04. 14:00 15 3 28 290° W
Di, 23.04. 8:00 9 2 17 270° W
Di, 23.04. 2:00 4 1 18 200° S
Mo, 22.04. 20:00 7 2 22 280° W
Mo, 22.04. 14:00 14 3 29 330° NW
Mo, 22.04. 8:00 7 2 22 30° NO
Ortszeit Stärke Spitze Richtung
km/h Bft. km/h Grad Sektor
Mi, 24.04. 2:00 7 2 11 170° S
Mi, 24.04. 1:50 7 2 - 170° S
Mi, 24.04. 1:40 6 1 - 160° S
Mi, 24.04. 1:30 7 2 11 160° S
Mi, 24.04. 1:20 7 2 - 160° S
Mi, 24.04. 1:10 6 1 - 160° S
Mi, 24.04. 1:00 6 1 9 170° S
Mi, 24.04. 0:30 6 1 9 170° S
Mi, 24.04. 0:00 7 2 11 170° S
Di, 23.04. 23:30 4 1 7 180° S
Di, 23.04. 23:00 4 1 7 190° S
Ortszeit Untergrenze Bedeckung Gattung
total tief tief mittel hoch
Mi, 24.04. 2:00 1500 m 8/8 8/8 - - -
Di, 23.04. 20:00 1380 m 8/8 8/8 - - -
Di, 23.04. 14:00 1500 m 6/8 6/8 - - -
Di, 23.04. 8:00 210 m 7/8 7/8 - - -
Di, 23.04. 2:00 1800 m 8/8 8/8 - - -
Mo, 22.04. 20:00 1080 m 7/8 7/8 - - -
Mo, 22.04. 14:00 600 m 8/8 8/8 - - -
Mo, 22.04. 8:00 - 0/8 0/8 - - -
Ortszeit Bedeckungsgrad in Achtel und Wolkenuntergrenze
Mi, 24.04. 2:00 8(1500m) 8(2400m) 8(4800m)
Mi, 24.04. 1:50 8(1500m) 8(2400m) 8(4800m)
Mi, 24.04. 1:40 8
Mi, 24.04. 1:30 8(1800m)
Mi, 24.04. 1:20 8(1800m)
Mi, 24.04. 1:10 8
Mi, 24.04. 1:00 8(1800m)
Mi, 24.04. 0:30 8(2100m) 8(3900m)
Mi, 24.04. 0:00 8(2100m)
Di, 23.04. 23:30 8(2100m)
Di, 23.04. 23:00 8(2100m) 8(4800m)
Ortszeit Luftdruck NN (hPa) Tendenz (hPa in 3 Std.)
Mi, 24.04. 2:00 1012 - 1,8
Di, 23.04. 20:00 1015 - 1,7
Di, 23.04. 14:00 1019 keine Meldung
Di, 23.04. 8:00 1022 - 0,1
Di, 23.04. 2:00 1023 - 0,7
Mo, 22.04. 20:00 1023 - 0,3
Mo, 22.04. 14:00 1024 - 0,5
Mo, 22.04. 8:00 1025 - 0,1
Ortszeit Luftdruck NN (hPa) Tendenz (hPa in 3 Std.)
Mi, 24.04. 2:00 1012 - 1,8
Mi, 24.04. 1:50 1012 keine Meldung
Mi, 24.04. 1:40 1012 keine Meldung
Mi, 24.04. 1:30 1012 - 1,7
Mi, 24.04. 1:20 1012 keine Meldung
Mi, 24.04. 1:10 1012 keine Meldung
Mi, 24.04. 1:00 1013 - 1,6
Mi, 24.04. 0:30 1013 - 1,4
Mi, 24.04. 0:00 1013 - 1,5
Di, 23.04. 23:30 1013 - 1,4
Di, 23.04. 23:00 1014 - 1,2
Ortszeit Schneehöhe (cm)
Mi, 24.04. 2:00 0
Di, 23.04. 20:00 0
Di, 23.04. 14:00 0
Di, 23.04. 8:00 0
Di, 23.04. 2:00 0
Mo, 22.04. 20:00 0
Mo, 22.04. 14:00 0
Mo, 22.04. 8:00 0
Ortszeit Schneehöhe (cm)
Mi, 24.04. 2:00 0
Mi, 24.04. 1:50 0
Mi, 24.04. 1:40 -
Mi, 24.04. 1:30 0
Mi, 24.04. 1:20 0
Mi, 24.04. 1:10 -
Mi, 24.04. 1:00 0
Mi, 24.04. 0:30 0
Mi, 24.04. 0:00 0
Di, 23.04. 23:30 0
Di, 23.04. 23:00 0
Link zu dieser Seite / Seite empfehlen

Das Wetter in ...